createdAt,value
2023-04-27T00:00:17.469Z,100175.00
2023-04-27T00:02:44.657Z,100177.00
2023-04-27T00:05:11.984Z,100177.00
2023-04-27T00:07:39.494Z,100182.00
2023-04-27T00:10:07.582Z,100178.00
2023-04-27T00:12:34.646Z,100181.00
2023-04-27T00:15:01.904Z,100174.00
2023-04-27T00:17:28.995Z,100173.00
2023-04-27T00:19:56.137Z,100169.00
2023-04-27T00:22:23.219Z,100179.00
2023-04-27T00:24:50.255Z,100174.00
2023-04-27T00:27:17.367Z,100180.00
2023-04-27T00:29:44.416Z,100152.00
2023-04-27T00:32:11.744Z,100182.00
2023-04-27T00:34:38.921Z,100175.00
2023-04-27T00:37:06.110Z,100177.00
2023-04-27T00:39:36.088Z,100177.00
2023-04-27T00:42:03.099Z,100173.00
2023-04-27T00:44:30.392Z,100180.00
2023-04-27T00:46:59.208Z,100170.00
2023-04-27T00:49:27.884Z,100182.00
2023-04-27T00:51:56.371Z,100153.00
2023-04-27T00:54:24.389Z,100183.00
2023-04-27T00:56:52.530Z,100188.00
2023-04-27T00:59:20.376Z,100190.00
2023-04-27T01:01:47.966Z,100188.00
2023-04-27T01:04:15.590Z,100180.00
2023-04-27T01:06:42.729Z,100188.00
2023-04-27T01:09:11.162Z,100190.00
2023-04-27T01:11:38.329Z,100193.00
2023-04-27T01:14:07.478Z,100173.00
2023-04-27T01:16:35.576Z,100195.00
2023-04-27T01:19:02.784Z,100184.00
2023-04-27T01:21:29.813Z,100206.00
2023-04-27T01:23:56.997Z,100199.00
2023-04-27T01:26:24.026Z,100158.00
2023-04-27T01:28:51.051Z,100196.00
2023-04-27T01:31:18.136Z,100201.00
2023-04-27T01:33:45.164Z,100195.00
2023-04-27T01:36:12.145Z,100194.00
2023-04-27T01:38:39.321Z,100190.00
2023-04-27T01:41:09.082Z,100189.00
2023-04-27T01:43:39.805Z,100193.00
2023-04-27T01:46:12.907Z,100195.00
2023-04-27T01:48:42.250Z,100191.00
2023-04-27T01:51:09.348Z,100186.00
2023-04-27T01:53:36.330Z,100199.00
2023-04-27T01:56:03.688Z,100193.00
2023-04-27T01:58:31.051Z,100191.00
2023-04-27T02:00:58.066Z,100193.00
2023-04-27T02:03:25.265Z,100201.00
2023-04-27T02:05:52.584Z,100204.00
2023-04-27T02:08:19.674Z,100200.00
2023-04-27T02:10:46.672Z,100199.00
2023-04-27T02:13:13.680Z,100163.00
2023-04-27T02:15:40.791Z,100201.00
2023-04-27T02:18:07.913Z,100202.00
2023-04-27T02:20:35.084Z,100207.00
2023-04-27T02:23:02.349Z,100202.00
2023-04-27T02:25:29.496Z,100205.00
2023-04-27T02:27:57.040Z,100160.00
2023-04-27T02:30:24.591Z,100194.00
2023-04-27T02:32:52.172Z,100206.00
2023-04-27T02:35:19.338Z,100206.00
2023-04-27T02:37:46.581Z,100205.00
2023-04-27T02:40:15.730Z,100201.00
2023-04-27T02:42:42.758Z,100197.00
2023-04-27T02:45:10.190Z,100195.00
2023-04-27T02:47:37.369Z,100204.00
2023-04-27T02:50:05.036Z,100196.00
2023-04-27T02:52:32.108Z,100201.00
2023-04-27T02:54:59.109Z,100197.00
2023-04-27T02:57:26.253Z,100205.00
2023-04-27T02:59:53.249Z,100183.00
2023-04-27T03:02:21.547Z,100200.00
2023-04-27T03:04:54.320Z,100206.00
2023-04-27T03:07:22.949Z,100214.00
2023-04-27T03:09:49.951Z,100209.00
2023-04-27T03:12:16.973Z,100207.00
2023-04-27T03:14:43.965Z,100204.00
2023-04-27T03:17:11.620Z,100217.00
2023-04-27T03:19:38.684Z,100207.00
2023-04-27T03:22:05.743Z,100215.00
2023-04-27T03:24:33.352Z,100220.00
2023-04-27T03:27:00.376Z,100216.00
2023-04-27T03:29:27.398Z,100223.00
2023-04-27T03:31:54.392Z,100222.00
2023-04-27T03:34:21.913Z,100217.00
2023-04-27T03:36:49.256Z,100221.00
2023-04-27T03:39:16.459Z,100233.00
2023-04-27T03:41:43.540Z,100237.00
2023-04-27T03:44:10.518Z,100213.00
2023-04-27T03:46:37.623Z,100226.00
2023-04-27T03:49:04.637Z,100229.00
2023-04-27T03:51:33.378Z,100219.00
2023-04-27T03:54:00.834Z,100224.00
2023-04-27T03:56:27.819Z,100221.00
2023-04-27T03:58:54.851Z,100227.00
2023-04-27T04:01:22.033Z,100224.00
2023-04-27T04:03:49.140Z,100234.00
2023-04-27T04:06:16.407Z,100240.00
2023-04-27T04:08:43.404Z,100240.00
2023-04-27T04:11:10.527Z,100241.00
2023-04-27T04:13:37.589Z,100243.00
2023-04-27T04:16:07.883Z,100246.00
2023-04-27T04:18:36.953Z,100239.00
2023-04-27T04:21:04.188Z,100250.00
2023-04-27T04:23:32.896Z,100250.00
2023-04-27T04:26:00.137Z,100261.00
2023-04-27T04:28:27.555Z,100255.00
2023-04-27T04:30:54.634Z,100259.00
2023-04-27T04:33:22.046Z,100261.00
2023-04-27T04:35:49.027Z,100263.00
2023-04-27T04:38:16.006Z,100267.00
2023-04-27T04:40:45.352Z,100267.00
2023-04-27T04:43:13.404Z,100264.00
2023-04-27T04:45:40.656Z,100265.00
2023-04-27T04:48:08.615Z,100261.00
2023-04-27T04:50:36.025Z,100268.00
2023-04-27T04:53:03.049Z,100258.00
2023-04-27T04:55:30.083Z,100267.00
2023-04-27T04:57:57.113Z,100274.00
2023-04-27T05:00:24.178Z,100267.00
2023-04-27T05:02:51.301Z,100280.00
2023-04-27T05:05:18.737Z,100280.00
2023-04-27T05:07:45.832Z,100283.00
2023-04-27T05:10:12.930Z,100285.00
2023-04-27T05:12:39.977Z,100290.00
2023-04-27T05:15:07.933Z,100294.00
2023-04-27T05:17:35.038Z,100297.00
2023-04-27T05:20:02.275Z,100306.00
2023-04-27T05:22:29.369Z,100303.00
2023-04-27T05:24:57.265Z,100304.00
2023-04-27T05:27:24.310Z,100303.00
2023-04-27T05:29:51.724Z,100319.00
2023-04-27T05:32:18.759Z,100313.00
2023-04-27T05:34:47.977Z,100315.00
2023-04-27T05:37:16.565Z,100191.00
2023-04-27T05:39:43.603Z,100317.00
2023-04-27T05:42:10.716Z,100315.00
2023-04-27T05:44:37.798Z,100323.00
2023-04-27T05:47:04.852Z,100331.00
2023-04-27T05:49:31.909Z,100331.00
2023-04-27T05:51:59.160Z,100338.00
2023-04-27T05:54:27.612Z,100332.00
2023-04-27T05:56:54.669Z,100339.00
2023-04-27T05:59:21.931Z,100336.00
2023-04-27T06:01:49.230Z,100341.00
2023-04-27T06:04:16.647Z,100345.00
2023-04-27T06:06:44.896Z,100341.00
2023-04-27T06:09:12.101Z,100352.00
2023-04-27T06:11:40.486Z,100359.00
2023-04-27T06:14:07.542Z,100345.00
2023-04-27T06:16:34.517Z,100363.00
2023-04-27T06:19:01.627Z,100348.00
2023-04-27T06:21:28.694Z,100344.00
2023-04-27T06:23:56.011Z,100347.00
2023-04-27T06:26:23.128Z,100346.00
2023-04-27T06:28:50.059Z,100344.00
2023-04-27T06:31:17.433Z,100349.00
2023-04-27T06:33:44.537Z,100344.00
2023-04-27T06:36:11.742Z,100335.00
2023-04-27T06:38:38.791Z,100344.00
2023-04-27T06:41:06.122Z,100350.00
2023-04-27T06:43:33.294Z,100343.00
2023-04-27T06:46:01.312Z,100345.00
2023-04-27T06:48:31.209Z,100349.00
2023-04-27T06:50:58.212Z,100346.00
2023-04-27T06:53:25.165Z,100348.00
2023-04-27T06:55:52.153Z,100357.00
2023-04-27T06:58:19.202Z,100353.00
2023-04-27T07:00:46.213Z,100349.00
2023-04-27T07:03:13.391Z,100342.00
2023-04-27T07:05:40.989Z,100335.00
2023-04-27T07:08:08.982Z,100343.00
2023-04-27T07:10:36.422Z,100337.00
2023-04-27T07:13:03.418Z,100356.00
2023-04-27T07:15:31.887Z,100344.00
2023-04-27T07:17:59.307Z,100363.00
2023-04-27T07:20:26.877Z,100337.00
2023-04-27T07:22:53.956Z,100342.00
2023-04-27T07:25:21.797Z,100362.00
2023-04-27T07:27:49.240Z,100354.00
2023-04-27T07:30:17.286Z,100339.00
2023-04-27T07:32:44.520Z,100344.00
2023-04-27T07:35:11.609Z,100351.00
2023-04-27T07:37:38.721Z,100351.00
2023-04-27T07:40:14.432Z,100353.00
2023-04-27T07:42:42.147Z,100358.00
2023-04-27T07:45:10.219Z,100355.00
2023-04-27T07:47:37.872Z,100346.00
2023-04-27T07:50:08.932Z,100358.00
2023-04-27T07:52:36.269Z,100348.00
2023-04-27T07:55:04.603Z,100350.00
2023-04-27T07:57:31.921Z,100322.00
2023-04-27T07:59:59.018Z,100355.00
2023-04-27T08:02:31.664Z,100360.00
2023-04-27T08:04:59.273Z,100362.00
2023-04-27T08:07:27.273Z,100363.00
2023-04-27T08:09:55.102Z,100341.00
2023-04-27T08:12:22.098Z,100339.00
2023-04-27T08:14:49.209Z,100351.00
2023-04-27T08:17:18.424Z,100342.00
2023-04-27T08:19:45.680Z,100326.00
2023-04-27T08:22:12.895Z,100335.00
2023-04-27T08:24:39.894Z,100342.00
2023-04-27T08:27:07.376Z,100345.00
2023-04-27T08:29:34.820Z,100351.00
2023-04-27T08:32:04.505Z,100348.00
2023-04-27T08:34:32.162Z,100342.00
2023-04-27T08:37:00.379Z,100344.00
2023-04-27T08:39:28.025Z,100345.00
2023-04-27T08:41:55.076Z,100346.00
2023-04-27T08:44:22.343Z,100364.00
2023-04-27T08:46:50.921Z,100371.00
2023-04-27T08:49:18.396Z,100368.00
2023-04-27T08:51:45.806Z,100370.00
2023-04-27T08:54:12.873Z,100369.00
2023-04-27T08:56:39.936Z,100373.00
2023-04-27T08:59:17.868Z,100366.00
2023-04-27T09:01:48.757Z,100359.00
2023-04-27T09:04:17.910Z,100349.00
2023-04-27T09:06:45.246Z,100358.00
2023-04-27T09:09:23.738Z,100347.00
2023-04-27T09:11:51.373Z,100340.00
2023-04-27T09:14:23.964Z,100341.00
2023-04-27T09:16:59.374Z,100343.00
2023-04-27T09:19:29.135Z,100351.00
2023-04-27T09:22:11.700Z,100347.00
2023-04-27T09:24:38.960Z,100345.00
2023-04-27T09:27:08.915Z,100342.00
2023-04-27T09:29:38.457Z,100363.00
2023-04-27T09:32:17.203Z,100350.00
2023-04-27T09:34:45.242Z,100342.00
2023-04-27T09:37:12.882Z,100320.00
2023-04-27T09:39:41.632Z,100376.00
2023-04-27T09:42:09.280Z,100376.00
2023-04-27T09:44:37.058Z,100349.00
2023-04-27T09:47:04.901Z,100353.00
2023-04-27T09:49:36.029Z,100350.00
2023-04-27T09:52:03.046Z,100349.00
2023-04-27T09:54:34.724Z,100330.00
2023-04-27T09:57:16.014Z,100347.00
2023-04-27T10:00:01.918Z,100346.00
2023-04-27T10:02:50.013Z,100364.00
2023-04-27T10:06:09.012Z,100383.00
2023-04-27T10:08:36.458Z,100388.00
2023-04-27T10:11:19.318Z,100395.00
2023-04-27T10:13:54.789Z,100403.00
2023-04-27T10:16:22.913Z,100403.00
2023-04-27T10:18:55.795Z,100407.00
2023-04-27T10:21:23.855Z,100404.00
2023-04-27T10:23:52.667Z,100405.00
2023-04-27T10:26:27.715Z,100409.00
2023-04-27T10:29:16.293Z,100411.00
2023-04-27T10:31:48.876Z,100412.00
2023-04-27T10:34:21.671Z,100404.00
2023-04-27T10:36:48.744Z,100405.00
2023-04-27T10:39:29.830Z,100398.00
2023-04-27T10:41:59.965Z,100415.00
2023-04-27T10:44:30.498Z,100403.00
2023-04-27T10:47:00.035Z,100379.00
2023-04-27T10:49:31.453Z,100389.00
2023-04-27T10:52:00.827Z,100406.00
2023-04-27T10:54:29.345Z,100392.00
2023-04-27T10:57:10.981Z,100410.00
2023-04-27T10:59:55.532Z,100404.00
2023-04-27T11:02:29.339Z,100391.00
2023-04-27T11:04:56.803Z,100397.00
2023-04-27T11:07:27.663Z,100390.00
2023-04-27T11:09:55.587Z,100381.00
2023-04-27T11:12:24.127Z,100396.00
2023-04-27T11:14:56.850Z,100402.00
2023-04-27T11:17:32.359Z,100359.00
2023-04-27T11:19:59.465Z,100392.00
2023-04-27T11:22:26.883Z,100377.00
2023-04-27T11:24:56.901Z,100386.00
2023-04-27T11:27:25.320Z,100377.00
2023-04-27T11:29:52.295Z,100395.00
2023-04-27T11:32:23.964Z,100380.00
2023-04-27T11:34:54.314Z,100400.00
2023-04-27T11:37:25.468Z,100393.00
2023-04-27T11:39:57.560Z,100390.00
2023-04-27T11:42:28.580Z,100415.00
2023-04-27T11:45:09.115Z,100428.00
2023-04-27T11:47:36.199Z,100442.00
2023-04-27T11:50:08.461Z,100457.00
2023-04-27T11:52:40.153Z,100467.00
2023-04-27T11:55:10.756Z,100475.00
2023-04-27T11:57:38.990Z,100472.00
2023-04-27T12:00:11.122Z,100482.00
2023-04-27T12:02:39.200Z,100487.00
2023-04-27T12:05:07.878Z,100489.00
2023-04-27T12:07:35.352Z,100492.00
2023-04-27T12:10:02.392Z,100493.00
2023-04-27T12:12:29.527Z,100483.00
2023-04-27T12:14:56.811Z,100482.00
2023-04-27T12:17:23.877Z,100501.00
2023-04-27T12:19:50.881Z,100487.00
2023-04-27T12:22:17.953Z,100493.00
2023-04-27T12:24:44.941Z,100495.00
2023-04-27T12:27:12.837Z,100485.00
2023-04-27T12:29:39.847Z,100481.00
2023-04-27T12:32:06.978Z,100480.00
2023-04-27T12:34:35.196Z,100480.00
2023-04-27T12:37:02.169Z,100485.00
2023-04-27T12:39:29.553Z,100476.00
2023-04-27T12:41:58.170Z,100476.00
2023-04-27T12:44:25.544Z,100473.00
2023-04-27T12:46:52.596Z,100479.00
2023-04-27T12:49:19.614Z,100480.00
2023-04-27T12:51:48.007Z,100468.00
2023-04-27T12:54:15.298Z,100476.00
2023-04-27T12:56:42.579Z,100474.00
2023-04-27T12:59:09.714Z,100473.00
2023-04-27T13:01:37.306Z,100453.00
2023-04-27T13:04:07.007Z,100471.00
2023-04-27T13:06:34.348Z,100469.00
2023-04-27T13:09:02.470Z,100473.00
2023-04-27T13:11:29.588Z,100455.00
2023-04-27T13:13:56.675Z,100466.00
2023-04-27T13:16:25.495Z,100463.00
2023-04-27T13:18:55.479Z,100471.00
2023-04-27T13:21:23.212Z,100468.00
2023-04-27T13:23:51.260Z,100477.00
2023-04-27T13:26:19.109Z,100487.00
2023-04-27T13:28:46.207Z,100486.00
2023-04-27T13:31:13.340Z,100498.00
2023-04-27T13:33:43.881Z,100500.00
2023-04-27T13:36:12.795Z,100501.00
2023-04-27T13:38:41.573Z,100501.00
2023-04-27T13:41:09.042Z,100487.00
2023-04-27T13:43:36.247Z,100494.00
2023-04-27T13:46:03.768Z,100500.00
2023-04-27T13:48:32.013Z,100494.00
2023-04-27T13:50:59.324Z,100503.00
2023-04-27T13:53:27.303Z,100492.00
2023-04-27T13:55:56.467Z,100483.00
2023-04-27T13:58:26.119Z,100490.00
2023-04-27T14:00:54.076Z,100478.00
2023-04-27T14:03:22.814Z,100489.00
2023-04-27T14:05:51.605Z,100496.00
2023-04-27T14:08:19.391Z,100496.00
2023-04-27T14:10:46.747Z,100507.00
2023-04-27T14:13:14.570Z,100495.00
2023-04-27T14:15:42.198Z,100504.00
2023-04-27T14:18:09.970Z,100525.00
2023-04-27T14:20:38.359Z,100514.00
2023-04-27T14:23:07.055Z,100523.00
2023-04-27T14:25:34.937Z,100511.00
2023-04-27T14:28:04.829Z,100509.00
2023-04-27T14:30:32.836Z,100518.00
2023-04-27T14:33:00.048Z,100505.00
2023-04-27T14:35:28.228Z,100487.00
2023-04-27T14:37:57.196Z,100506.00
2023-04-27T14:40:24.404Z,100494.00
2023-04-27T14:42:51.417Z,100503.00
2023-04-27T14:45:18.981Z,100501.00
2023-04-27T14:47:46.052Z,100506.00
2023-04-27T14:50:13.464Z,100500.00
2023-04-27T14:52:40.530Z,100498.00
2023-04-27T14:55:08.416Z,100494.00
2023-04-27T14:57:36.868Z,100479.00
2023-04-27T15:00:09.782Z,100490.00
2023-04-27T15:02:41.250Z,100494.00
2023-04-27T15:05:09.158Z,100500.00
2023-04-27T15:07:36.417Z,100499.00
2023-04-27T15:10:04.181Z,100505.00
2023-04-27T15:12:31.190Z,100487.00
2023-04-27T15:14:58.186Z,100491.00
2023-04-27T15:17:26.142Z,100493.00
2023-04-27T15:19:53.178Z,100496.00
2023-04-27T15:22:20.910Z,100495.00
2023-04-27T15:24:47.995Z,100494.00
2023-04-27T15:27:14.967Z,100489.00
2023-04-27T15:29:41.991Z,100487.00
2023-04-27T15:32:09.269Z,100480.00
2023-04-27T15:34:36.408Z,100488.00
2023-04-27T15:37:04.011Z,100508.00
2023-04-27T15:39:31.191Z,100486.00
2023-04-27T15:41:59.796Z,100508.00
2023-04-27T15:44:27.096Z,100497.00
2023-04-27T15:46:54.397Z,100502.00
2023-04-27T15:49:21.621Z,100486.00
2023-04-27T15:51:49.322Z,100482.00
2023-04-27T15:54:17.938Z,100489.00
2023-04-27T15:56:44.962Z,100490.00
2023-04-27T15:59:13.716Z,100490.00
2023-04-27T16:01:41.152Z,100487.00
2023-04-27T16:04:08.393Z,100493.00
2023-04-27T16:06:36.794Z,100489.00
2023-04-27T16:09:04.330Z,100496.00
2023-04-27T16:11:31.654Z,100500.00
2023-04-27T16:13:59.469Z,100481.00
2023-04-27T16:16:27.193Z,100496.00
2023-04-27T16:18:54.711Z,100493.00
2023-04-27T16:21:21.926Z,100496.00
2023-04-27T16:23:49.028Z,100505.00
2023-04-27T16:26:16.549Z,100504.00
2023-04-27T16:28:43.695Z,100498.00
2023-04-27T16:31:12.563Z,100474.00
2023-04-27T16:33:39.869Z,100497.00
2023-04-27T16:36:07.181Z,100500.00
2023-04-27T16:38:34.283Z,100508.00
2023-04-27T16:41:01.309Z,100505.00
2023-04-27T16:43:29.944Z,100497.00
2023-04-27T16:45:57.075Z,100508.00
2023-04-27T16:48:25.426Z,100515.00
2023-04-27T16:50:54.741Z,100426.00
2023-04-27T16:53:22.401Z,100515.00
2023-04-27T16:55:49.468Z,100512.00
2023-04-27T16:58:16.596Z,100511.00
2023-04-27T17:00:46.312Z,100512.00
2023-04-27T17:03:13.516Z,100509.00
2023-04-27T17:05:40.627Z,100523.00
2023-04-27T17:08:08.490Z,100524.00
2023-04-27T17:10:36.782Z,100521.00
2023-04-27T17:13:07.805Z,100523.00
2023-04-27T17:15:34.802Z,100522.00
2023-04-27T17:18:05.080Z,100529.00
2023-04-27T17:20:32.677Z,100494.00
2023-04-27T17:22:59.786Z,100510.00
2023-04-27T17:25:26.977Z,100520.00
2023-04-27T17:27:53.963Z,100524.00
2023-04-27T17:30:20.940Z,100524.00
2023-04-27T17:32:49.341Z,100521.00
2023-04-27T17:35:16.357Z,100523.00
2023-04-27T17:37:43.317Z,100529.00
2023-04-27T17:40:11.298Z,100524.00
2023-04-27T17:42:38.281Z,100498.00
2023-04-27T17:45:06.302Z,100534.00
2023-04-27T17:47:33.830Z,100537.00
2023-04-27T17:50:02.007Z,100537.00
2023-04-27T17:52:29.210Z,100537.00
2023-04-27T17:54:56.526Z,100535.00
2023-04-27T17:57:23.706Z,100544.00
2023-04-27T17:59:50.965Z,100545.00
2023-04-27T18:02:18.202Z,100544.00
2023-04-27T18:04:45.645Z,100552.00
2023-04-27T18:07:12.884Z,100545.00
2023-04-27T18:09:40.034Z,100560.00
2023-04-27T18:12:11.013Z,100566.00
2023-04-27T18:14:38.870Z,100567.00
2023-04-27T18:17:06.323Z,100574.00
2023-04-27T18:19:33.511Z,100572.00
2023-04-27T18:22:00.512Z,100587.00
2023-04-27T18:24:27.588Z,100580.00
2023-04-27T18:26:54.669Z,100583.00
2023-04-27T18:29:21.732Z,100588.00
2023-04-27T18:31:49.395Z,100583.00
2023-04-27T18:34:16.605Z,100588.00
2023-04-27T18:36:43.766Z,100587.00
2023-04-27T18:39:11.005Z,100594.00
2023-04-27T18:41:38.084Z,100589.00
2023-04-27T18:44:06.190Z,100600.00
2023-04-27T18:46:33.704Z,100601.00
2023-04-27T18:49:01.955Z,100612.00
2023-04-27T18:51:29.367Z,100613.00
2023-04-27T18:53:56.662Z,100606.00
2023-04-27T18:56:24.232Z,100612.00
2023-04-27T18:58:51.351Z,100618.00
2023-04-27T19:01:25.399Z,100628.00
2023-04-27T19:03:53.791Z,100606.00
2023-04-27T19:06:21.404Z,100618.00
2023-04-27T19:08:48.920Z,100619.00
2023-04-27T19:11:16.507Z,100616.00
2023-04-27T19:13:45.327Z,100619.00
2023-04-27T19:16:12.927Z,100618.00
2023-04-27T19:18:40.840Z,100624.00
2023-04-27T19:21:10.071Z,100629.00
2023-04-27T19:23:37.858Z,100627.00
2023-04-27T19:26:13.166Z,100631.00
2023-04-27T19:28:41.326Z,100633.00
2023-04-27T19:31:10.298Z,100607.00
2023-04-27T19:33:37.516Z,100622.00
2023-04-27T19:36:05.544Z,100631.00
2023-04-27T19:38:32.836Z,100627.00
2023-04-27T19:41:00.324Z,100626.00
2023-04-27T19:43:29.071Z,100628.00
2023-04-27T19:45:57.209Z,100621.00
2023-04-27T19:48:24.484Z,100626.00
2023-04-27T19:50:51.527Z,100636.00
2023-04-27T19:53:19.074Z,100621.00
2023-04-27T19:55:46.743Z,100632.00
2023-04-27T19:58:14.041Z,100630.00
2023-04-27T20:00:41.661Z,100629.00
2023-04-27T20:03:08.958Z,100629.00
2023-04-27T20:05:37.638Z,100634.00
2023-04-27T20:08:04.956Z,100630.00
2023-04-27T20:10:33.166Z,100638.00
2023-04-27T20:13:00.589Z,100642.00
2023-04-27T20:15:29.693Z,100636.00
2023-04-27T20:17:56.768Z,100642.00
2023-04-27T20:20:25.386Z,100645.00
2023-04-27T20:22:52.492Z,100636.00
2023-04-27T20:25:20.171Z,100644.00
2023-04-27T20:27:47.288Z,100651.00
2023-04-27T20:30:14.375Z,100643.00
2023-04-27T20:32:41.410Z,100647.00
2023-04-27T20:35:11.718Z,100646.00
2023-04-27T20:37:40.082Z,100649.00
2023-04-27T20:40:11.918Z,100641.00
2023-04-27T20:42:42.582Z,100655.00
2023-04-27T20:45:11.594Z,100655.00
2023-04-27T20:47:38.842Z,100656.00
2023-04-27T20:50:08.042Z,100658.00
2023-04-27T20:52:36.452Z,100646.00
2023-04-27T20:55:04.751Z,100654.00
2023-04-27T20:57:32.426Z,100655.00
2023-04-27T20:59:59.502Z,100655.00
2023-04-27T21:02:26.612Z,100655.00
2023-04-27T21:04:53.843Z,100656.00
2023-04-27T21:07:21.023Z,100655.00
2023-04-27T21:09:48.010Z,100653.00
2023-04-27T21:12:17.242Z,100654.00
2023-04-27T21:14:44.973Z,100653.00
2023-04-27T21:17:15.133Z,100654.00
2023-04-27T21:19:43.352Z,100655.00
2023-04-27T21:22:10.401Z,100655.00
2023-04-27T21:24:37.418Z,100663.00
2023-04-27T21:27:04.778Z,100653.00
2023-04-27T21:29:34.024Z,100654.00
2023-04-27T21:32:01.088Z,100652.00
2023-04-27T21:34:28.340Z,100651.00
2023-04-27T21:36:55.610Z,100651.00
2023-04-27T21:39:22.618Z,100652.00
2023-04-27T21:41:49.594Z,100654.00
2023-04-27T21:44:16.840Z,100649.00
2023-04-27T21:46:44.194Z,100659.00
2023-04-27T21:49:11.394Z,100661.00
2023-04-27T21:51:38.511Z,100657.00
2023-04-27T21:54:06.284Z,100649.00
2023-04-27T21:56:33.342Z,100659.00
2023-04-27T21:59:00.380Z,100662.00
2023-04-27T22:01:27.502Z,100666.00
2023-04-27T22:03:54.888Z,100664.00
2023-04-27T22:06:22.157Z,100659.00
2023-04-27T22:08:49.283Z,100659.00
2023-04-27T22:11:16.704Z,100662.00
2023-04-27T22:13:43.706Z,100658.00
2023-04-27T22:16:13.138Z,100664.00
2023-04-27T22:18:40.825Z,100661.00
2023-04-27T22:21:08.282Z,100661.00
2023-04-27T22:23:35.538Z,100644.00
2023-04-27T22:26:02.679Z,100665.00
2023-04-27T22:28:29.685Z,100657.00
2023-04-27T22:30:57.124Z,100661.00
2023-04-27T22:33:24.303Z,100666.00
2023-04-27T22:35:51.539Z,100663.00
2023-04-27T22:38:18.592Z,100658.00
2023-04-27T22:40:45.589Z,100669.00
2023-04-27T22:43:12.587Z,100658.00
2023-04-27T22:45:39.693Z,100668.00
2023-04-27T22:48:10.228Z,100655.00
2023-04-27T22:50:37.306Z,100660.00
2023-04-27T22:53:04.645Z,100654.00
2023-04-27T22:55:31.643Z,100655.00
2023-04-27T22:57:58.647Z,100651.00
2023-04-27T23:00:26.296Z,100657.00
2023-04-27T23:02:53.467Z,100660.00
2023-04-27T23:05:20.705Z,100656.00
2023-04-27T23:07:47.752Z,100655.00
2023-04-27T23:10:15.273Z,100658.00
2023-04-27T23:12:42.331Z,100652.00
2023-04-27T23:15:10.279Z,100666.00
2023-04-27T23:17:37.476Z,100659.00
2023-04-27T23:20:11.196Z,100654.00
2023-04-27T23:22:44.187Z,100649.00
2023-04-27T23:25:11.551Z,100654.00
2023-04-27T23:27:38.554Z,100654.00
2023-04-27T23:30:07.031Z,100651.00
2023-04-27T23:32:35.837Z,100652.00
2023-04-27T23:35:02.898Z,100656.00
2023-04-27T23:37:29.905Z,100652.00
2023-04-27T23:39:56.891Z,100644.00
2023-04-27T23:42:23.882Z,100650.00
2023-04-27T23:44:51.030Z,100649.00
2023-04-27T23:47:18.020Z,100643.00
2023-04-27T23:49:45.136Z,100654.00
2023-04-27T23:52:12.515Z,100658.00
2023-04-27T23:54:39.521Z,100652.00
2023-04-27T23:57:06.728Z,100653.00
2023-04-27T23:59:35.464Z,100655.00
